sensor_id;sensor_type;location;lat;lon;timestamp;P1;P2;P0
37290;PMS5003;23175;-33.706;151.094;2023-05-07T00:02:08;12;10;
37290;PMS5003;23175;-33.706;151.094;2023-05-07T00:04:39;13;12;
37290;PMS5003;23175;-33.706;151.094;2023-05-07T00:07:09;15;14;
37290;PMS5003;23175;-33.706;151.094;2023-05-07T00:09:39;12;11;
37290;PMS5003;23175;-33.706;151.094;2023-05-07T00:12:15;11;11;
37290;PMS5003;23175;-33.706;151.094;2023-05-07T00:14:49;15;15;
37290;PMS5003;23175;-33.706;151.094;2023-05-07T00:17:19;10;10;
37290;PMS5003;23175;-33.706;151.094;2023-05-07T00:19:50;11;10;
37290;PMS5003;23175;-33.706;151.094;2023-05-07T00:22:19;12;10;
37290;PMS5003;23175;-33.706;151.094;2023-05-07T00:24:50;10;10;
37290;PMS5003;23175;-33.706;151.094;2023-05-07T00:27:20;10;8;
37290;PMS5003;23175;-33.706;151.094;2023-05-07T00:29:50;11;9;
37290;PMS5003;23175;-33.706;151.094;2023-05-07T00:32:20;12;10;
37290;PMS5003;23175;-33.706;151.094;2023-05-07T00:34:50;7;7;
37290;PMS5003;23175;-33.706;151.094;2023-05-07T00:37:20;9;9;
37290;PMS5003;23175;-33.706;151.094;2023-05-07T00:39:50;12;12;
37290;PMS5003;23175;-33.706;151.094;2023-05-07T00:42:20;13;13;
37290;PMS5003;23175;-33.706;151.094;2023-05-07T00:44:50;10;10;
37290;PMS5003;23175;-33.706;151.094;2023-05-07T00:47:25;11;11;
37290;PMS5003;23175;-33.706;151.094;2023-05-07T00:49:55;12;10;
37290;PMS5003;23175;-33.706;151.094;2023-05-07T00:52:26;11;9;
37290;PMS5003;23175;-33.706;151.094;2023-05-07T00:54:56;7;7;
37290;PMS5003;23175;-33.706;151.094;2023-05-07T00:57:28;9;8;
37290;PMS5003;23175;-33.706;151.094;2023-05-07T01:00:00;10;10;
37290;PMS5003;23175;-33.706;151.094;2023-05-07T01:02:36;8;8;
37290;PMS5003;23175;-33.706;151.094;2023-05-07T01:05:06;10;9;
37290;PMS5003;23175;-33.706;151.094;2023-05-07T01:07:41;8;8;
37290;PMS5003;23175;-33.706;151.094;2023-05-07T01:10:12;12;9;
37290;PMS5003;23175;-33.706;151.094;2023-05-07T01:12:43;8;8;
37290;PMS5003;23175;-33.706;151.094;2023-05-07T01:15:16;7;7;
37290;PMS5003;23175;-33.706;151.094;2023-05-07T01:17:46;8;8;
37290;PMS5003;23175;-33.706;151.094;2023-05-07T01:20:17;8;8;
37290;PMS5003;23175;-33.706;151.094;2023-05-07T01:22:47;6;6;
37290;PMS5003;23175;-33.706;151.094;2023-05-07T01:25:18;7;7;
37290;PMS5003;23175;-33.706;151.094;2023-05-07T01:27:48;9;9;
37290;PMS5003;23175;-33.706;151.094;2023-05-07T01:30:19;6;6;
37290;PMS5003;23175;-33.706;151.094;2023-05-07T01:32:57;8;8;
37290;PMS5003;23175;-33.706;151.094;2023-05-07T01:35:30;10;7;
37290;PMS5003;23175;-33.706;151.094;2023-05-07T01:38:05;5;5;
37290;PMS5003;23175;-33.706;151.094;2023-05-07T01:40:37;7;5;
37290;PMS5003;23175;-33.706;151.094;2023-05-07T01:43:08;5;5;
37290;PMS5003;23175;-33.706;151.094;2023-05-07T01:45:39;6;5;
37290;PMS5003;23175;-33.706;151.094;2023-05-07T01:48:10;3;3;
37290;PMS5003;23175;-33.706;151.094;2023-05-07T01:50:47;3;2;
37290;PMS5003;23175;-33.706;151.094;2023-05-07T01:53:18;4;4;
37290;PMS5003;23175;-33.706;151.094;2023-05-07T01:55:48;4;4;
37290;PMS5003;23175;-33.706;151.094;2023-05-07T01:58:18;3;3;
37290;PMS5003;23175;-33.706;151.094;2023-05-07T02:00:48;4;4;
37290;PMS5003;23175;-33.706;151.094;2023-05-07T02:03:18;2;1;
37290;PMS5003;23175;-33.706;151.094;2023-05-07T02:05:48;3;3;
37290;PMS5003;23175;-33.706;151.094;2023-05-07T02:08:18;2;0;
37290;PMS5003;23175;-33.706;151.094;2023-05-07T02:10:47;3;1;
37290;PMS5003;23175;-33.706;151.094;2023-05-07T02:13:22;2;2;
37290;PMS5003;23175;-33.706;151.094;2023-05-07T02:15:52;3;3;
37290;PMS5003;23175;-33.706;151.094;2023-05-07T02:18:22;2;2;
37290;PMS5003;23175;-33.706;151.094;2023-05-07T02:20:57;3;3;
37290;PMS5003;23175;-33.706;151.094;2023-05-07T02:23:32;1;1;
37290;PMS5003;23175;-33.706;151.094;2023-05-07T02:26:03;1;1;
37290;PMS5003;23175;-33.706;151.094;2023-05-07T02:28:33;1;1;
37290;PMS5003;23175;-33.706;151.094;2023-05-07T02:31:03;2;2;
37290;PMS5003;23175;-33.706;151.094;2023-05-07T02:33:33;1;1;
37290;PMS5003;23175;-33.706;151.094;2023-05-07T02:36:07;1;1;
37290;PMS5003;23175;-33.706;151.094;2023-05-07T02:38:40;4;2;
37290;PMS5003;23175;-33.706;151.094;2023-05-07T02:41:15;2;2;
37290;PMS5003;23175;-33.706;151.094;2023-05-07T02:43:45;4;4;
37290;PMS5003;23175;-33.706;151.094;2023-05-07T02:46:15;2;2;
37290;PMS5003;23175;-33.706;151.094;2023-05-07T02:48:50;2;2;
37290;PMS5003;23175;-33.706;151.094;2023-05-07T02:51:20;5;3;
37290;PMS5003;23175;-33.706;151.094;2023-05-07T02:53:50;3;3;
37290;PMS5003;23175;-33.706;151.094;2023-05-07T02:56:20;1;1;
37290;PMS5003;23175;-33.706;151.094;2023-05-07T02:58:55;1;1;
37290;PMS5003;23175;-33.706;151.094;2023-05-07T03:01:25;3;1;
37290;PMS5003;23175;-33.706;151.094;2023-05-07T03:03:56;1;1;
37290;PMS5003;23175;-33.706;151.094;2023-05-07T03:06:26;0;0;
37290;PMS5003;23175;-33.706;151.094;2023-05-07T03:08:56;1;1;
37290;PMS5003;23175;-33.706;151.094;2023-05-07T03:11:26;0;0;
37290;PMS5003;23175;-33.706;151.094;2023-05-07T03:13:56;1;1;
37290;PMS5003;23175;-33.706;151.094;2023-05-07T03:16:26;0;0;
37290;PMS5003;23175;-33.706;151.094;2023-05-07T03:18:56;3;3;
37290;PMS5003;23175;-33.706;151.094;2023-05-07T03:21:26;0;0;
37290;PMS5003;23175;-33.706;151.094;2023-05-07T03:23:56;2;2;
37290;PMS5003;23175;-33.706;151.094;2023-05-07T03:26:26;0;0;
37290;PMS5003;23175;-33.706;151.094;2023-05-07T03:28:56;0;0;
37290;PMS5003;23175;-33.706;151.094;2023-05-07T03:31:26;1;1;
37290;PMS5003;23175;-33.706;151.094;2023-05-07T03:33:56;2;2;
37290;PMS5003;23175;-33.706;151.094;2023-05-07T03:36:27;3;2;
37290;PMS5003;23175;-33.706;151.094;2023-05-07T03:38:57;1;1;
37290;PMS5003;23175;-33.706;151.094;2023-05-07T03:41:26;0;0;
37290;PMS5003;23175;-33.706;151.094;2023-05-07T03:43:56;0;0;
37290;PMS5003;23175;-33.706;151.094;2023-05-07T03:46:26;1;1;
37290;PMS5003;23175;-33.706;151.094;2023-05-07T03:48:56;0;0;
37290;PMS5003;23175;-33.706;151.094;2023-05-07T03:51:26;0;0;
37290;PMS5003;23175;-33.706;151.094;2023-05-07T03:53:56;0;0;
37290;PMS5003;23175;-33.706;151.094;2023-05-07T03:56:26;0;0;
37290;PMS5003;23175;-33.706;151.094;2023-05-07T03:58:56;0;0;
37290;PMS5003;23175;-33.706;151.094;2023-05-07T04:01:25;1;1;
37290;PMS5003;23175;-33.706;151.094;2023-05-07T04:03:55;0;0;
37290;PMS5003;23175;-33.706;151.094;2023-05-07T04:06:25;0;0;
37290;PMS5003;23175;-33.706;151.094;2023-05-07T04:08:55;0;0;
37290;PMS5003;23175;-33.706;151.094;2023-05-07T04:11:25;1;1;
37290;PMS5003;23175;-33.706;151.094;2023-05-07T04:13:55;0;0;
37290;PMS5003;23175;-33.706;151.094;2023-05-07T04:16:25;1;1;
37290;PMS5003;23175;-33.706;151.094;2023-05-07T04:18:55;1;1;
37290;PMS5003;23175;-33.706;151.094;2023-05-07T04:21:25;1;1;
37290;PMS5003;23175;-33.706;151.094;2023-05-07T04:23:55;0;0;
37290;PMS5003;23175;-33.706;151.094;2023-05-07T04:26:25;1;1;
37290;PMS5003;23175;-33.706;151.094;2023-05-07T04:28:55;1;1;
37290;PMS5003;23175;-33.706;151.094;2023-05-07T04:31:25;2;1;
37290;PMS5003;23175;-33.706;151.094;2023-05-07T04:33:55;1;1;
37290;PMS5003;23175;-33.706;151.094;2023-05-07T04:36:25;0;0;
37290;PMS5003;23175;-33.706;151.094;2023-05-07T04:38:55;0;0;
37290;PMS5003;23175;-33.706;151.094;2023-05-07T04:41:25;0;0;
37290;PMS5003;23175;-33.706;151.094;2023-05-07T04:43:55;0;0;
37290;PMS5003;23175;-33.706;151.094;2023-05-07T04:46:24;0;0;
37290;PMS5003;23175;-33.706;151.094;2023-05-07T04:48:54;1;1;
37290;PMS5003;23175;-33.706;151.094;2023-05-07T04:51:24;1;1;
37290;PMS5003;23175;-33.706;151.094;2023-05-07T04:53:54;2;1;
37290;PMS5003;23175;-33.706;151.094;2023-05-07T04:56:24;0;0;
37290;PMS5003;23175;-33.706;151.094;2023-05-07T04:58:56;1;1;
37290;PMS5003;23175;-33.706;151.094;2023-05-07T05:01:26;0;0;
37290;PMS5003;23175;-33.706;151.094;2023-05-07T05:03:56;2;2;
37290;PMS5003;23175;-33.706;151.094;2023-05-07T05:06:26;1;1;
37290;PMS5003;23175;-33.706;151.094;2023-05-07T05:08:56;1;1;
37290;PMS5003;23175;-33.706;151.094;2023-05-07T05:11:26;1;1;
37290;PMS5003;23175;-33.706;151.094;2023-05-07T05:14:00;0;0;
37290;PMS5003;23175;-33.706;151.094;2023-05-07T05:16:31;0;0;
37290;PMS5003;23175;-33.706;151.094;2023-05-07T05:19:01;0;0;
37290;PMS5003;23175;-33.706;151.094;2023-05-07T05:21:31;0;0;
37290;PMS5003;23175;-33.706;151.094;2023-05-07T05:24:02;0;0;
37290;PMS5003;23175;-33.706;151.094;2023-05-07T05:26:33;2;1;
37290;PMS5003;23175;-33.706;151.094;2023-05-07T05:29:03;0;0;
37290;PMS5003;23175;-33.706;151.094;2023-05-07T05:31:32;0;0;
37290;PMS5003;23175;-33.706;151.094;2023-05-07T05:34:04;2;1;
37290;PMS5003;23175;-33.706;151.094;2023-05-07T05:36:34;0;0;
37290;PMS5003;23175;-33.706;151.094;2023-05-07T05:39:04;0;0;
37290;PMS5003;23175;-33.706;151.094;2023-05-07T05:41:34;1;1;
37290;PMS5003;23175;-33.706;151.094;2023-05-07T05:44:04;1;1;
37290;PMS5003;23175;-33.706;151.094;2023-05-07T05:46:34;1;1;
37290;PMS5003;23175;-33.706;151.094;2023-05-07T05:49:05;1;1;
37290;PMS5003;23175;-33.706;151.094;2023-05-07T05:51:35;3;3;
37290;PMS5003;23175;-33.706;151.094;2023-05-07T05:54:06;2;2;
37290;PMS5003;23175;-33.706;151.094;2023-05-07T05:56:36;3;2;
37290;PMS5003;23175;-33.706;151.094;2023-05-07T05:59:06;2;2;
37290;PMS5003;23175;-33.706;151.094;2023-05-07T06:01:36;3;3;
37290;PMS5003;23175;-33.706;151.094;2023-05-07T06:04:07;3;3;
37290;PMS5003;23175;-33.706;151.094;2023-05-07T06:06:38;4;2;
37290;PMS5003;23175;-33.706;151.094;2023-05-07T06:09:08;2;2;
37290;PMS5003;23175;-33.706;151.094;2023-05-07T06:11:37;4;3;
37290;PMS5003;23175;-33.706;151.094;2023-05-07T06:14:09;2;2;
37290;PMS5003;23175;-33.706;151.094;2023-05-07T06:16:39;2;2;
37290;PMS5003;23175;-33.706;151.094;2023-05-07T06:19:09;2;2;
37290;PMS5003;23175;-33.706;151.094;2023-05-07T06:21:39;0;0;
37290;PMS5003;23175;-33.706;151.094;2023-05-07T06:24:09;2;2;
37290;PMS5003;23175;-33.706;151.094;2023-05-07T06:26:39;4;4;
37290;PMS5003;23175;-33.706;151.094;2023-05-07T06:29:09;2;1;
37290;PMS5003;23175;-33.706;151.094;2023-05-07T06:31:39;3;3;
37290;PMS5003;23175;-33.706;151.094;2023-05-07T06:34:09;2;2;
37290;PMS5003;23175;-33.706;151.094;2023-05-07T06:36:39;2;2;
37290;PMS5003;23175;-33.706;151.094;2023-05-07T06:39:09;2;2;
37290;PMS5003;23175;-33.706;151.094;2023-05-07T06:41:39;3;3;
37290;PMS5003;23175;-33.706;151.094;2023-05-07T06:44:09;2;2;
37290;PMS5003;23175;-33.706;151.094;2023-05-07T06:46:39;3;2;
37290;PMS5003;23175;-33.706;151.094;2023-05-07T06:49:09;3;3;
37290;PMS5003;23175;-33.706;151.094;2023-05-07T06:51:39;2;2;
37290;PMS5003;23175;-33.706;151.094;2023-05-07T06:54:09;2;2;
37290;PMS5003;23175;-33.706;151.094;2023-05-07T06:56:44;2;2;
37290;PMS5003;23175;-33.706;151.094;2023-05-07T06:59:15;2;2;
37290;PMS5003;23175;-33.706;151.094;2023-05-07T07:01:45;3;3;
37290;PMS5003;23175;-33.706;151.094;2023-05-07T07:04:15;2;2;
37290;PMS5003;23175;-33.706;151.094;2023-05-07T07:06:46;2;2;
37290;PMS5003;23175;-33.706;151.094;2023-05-07T07:09:16;1;1;
37290;PMS5003;23175;-33.706;151.094;2023-05-07T07:11:46;2;2;
37290;PMS5003;23175;-33.706;151.094;2023-05-07T07:14:16;3;3;
37290;PMS5003;23175;-33.706;151.094;2023-05-07T07:16:46;5;5;
37290;PMS5003;23175;-33.706;151.094;2023-05-07T07:19:16;3;3;
37290;PMS5003;23175;-33.706;151.094;2023-05-07T07:21:45;2;2;
37290;PMS5003;23175;-33.706;151.094;2023-05-07T07:24:16;3;2;
37290;PMS5003;23175;-33.706;151.094;2023-05-07T07:26:50;1;1;
37290;PMS5003;23175;-33.706;151.094;2023-05-07T07:29:21;2;2;
37290;PMS5003;23175;-33.706;151.094;2023-05-07T07:31:51;2;2;
37290;PMS5003;23175;-33.706;151.094;2023-05-07T07:34:21;2;2;
37290;PMS5003;23175;-33.706;151.094;2023-05-07T07:36:51;2;2;
37290;PMS5003;23175;-33.706;151.094;2023-05-07T07:39:21;4;4;
37290;PMS5003;23175;-33.706;151.094;2023-05-07T07:41:51;5;4;
37290;PMS5003;23175;-33.706;151.094;2023-05-07T07:44:22;5;5;
37290;PMS5003;23175;-33.706;151.094;2023-05-07T07:46:51;3;2;
37290;PMS5003;23175;-33.706;151.094;2023-05-07T07:49:22;4;2;
37290;PMS5003;23175;-33.706;151.094;2023-05-07T07:51:52;2;2;
37290;PMS5003;23175;-33.706;151.094;2023-05-07T07:54:21;3;3;
37290;PMS5003;23175;-33.706;151.094;2023-05-07T07:56:52;3;3;
37290;PMS5003;23175;-33.706;151.094;2023-05-07T07:59:22;3;3;
37290;PMS5003;23175;-33.706;151.094;2023-05-07T08:01:52;2;2;
37290;PMS5003;23175;-33.706;151.094;2023-05-07T08:04:22;4;2;
37290;PMS5003;23175;-33.706;151.094;2023-05-07T08:06:53;4;4;
37290;PMS5003;23175;-33.706;151.094;2023-05-07T08:09:23;2;2;
37290;PMS5003;23175;-33.706;151.094;2023-05-07T08:11:53;5;5;
37290;PMS5003;23175;-33.706;151.094;2023-05-07T08:14:23;3;3;
37290;PMS5003;23175;-33.706;151.094;2023-05-07T08:16:53;4;3;
37290;PMS5003;23175;-33.706;151.094;2023-05-07T08:19:23;1;1;
37290;PMS5003;23175;-33.706;151.094;2023-05-07T08:21:53;2;2;
37290;PMS5003;23175;-33.706;151.094;2023-05-07T08:24:23;2;2;
37290;PMS5003;23175;-33.706;151.094;2023-05-07T08:26:53;2;2;
37290;PMS5003;23175;-33.706;151.094;2023-05-07T08:29:23;2;2;
37290;PMS5003;23175;-33.706;151.094;2023-05-07T08:31:53;3;3;
37290;PMS5003;23175;-33.706;151.094;2023-05-07T08:34:23;3;3;
37290;PMS5003;23175;-33.706;151.094;2023-05-07T08:36:53;2;2;
37290;PMS5003;23175;-33.706;151.094;2023-05-07T08:39:23;2;2;
37290;PMS5003;23175;-33.706;151.094;2023-05-07T08:41:54;3;1;
37290;PMS5003;23175;-33.706;151.094;2023-05-07T08:44:28;6;4;
37290;PMS5003;23175;-33.706;151.094;2023-05-07T08:47:01;2;2;
37290;PMS5003;23175;-33.706;151.094;2023-05-07T08:49:34;3;3;
37290;PMS5003;23175;-33.706;151.094;2023-05-07T08:52:05;3;1;
37290;PMS5003;23175;-33.706;151.094;2023-05-07T08:54:35;3;3;
37290;PMS5003;23175;-33.706;151.094;2023-05-07T08:57:07;3;3;
37290;PMS5003;23175;-33.706;151.094;2023-05-07T08:59:38;3;3;
37290;PMS5003;23175;-33.706;151.094;2023-05-07T09:02:08;4;2;
37290;PMS5003;23175;-33.706;151.094;2023-05-07T09:04:39;3;3;
37290;PMS5003;23175;-33.706;151.094;2023-05-07T09:07:10;3;3;
37290;PMS5003;23175;-33.706;151.094;2023-05-07T09:09:41;2;2;
37290;PMS5003;23175;-33.706;151.094;2023-05-07T09:12:12;3;3;
37290;PMS5003;23175;-33.706;151.094;2023-05-07T09:14:42;2;2;
37290;PMS5003;23175;-33.706;151.094;2023-05-07T09:17:12;1;1;
37290;PMS5003;23175;-33.706;151.094;2023-05-07T09:19:44;2;2;
37290;PMS5003;23175;-33.706;151.094;2023-05-07T09:22:14;2;2;
37290;PMS5003;23175;-33.706;151.094;2023-05-07T09:24:47;1;1;
37290;PMS5003;23175;-33.706;151.094;2023-05-07T09:27:18;2;2;
37290;PMS5003;23175;-33.706;151.094;2023-05-07T09:29:48;2;2;
37290;PMS5003;23175;-33.706;151.094;2023-05-07T09:32:18;1;1;
37290;PMS5003;23175;-33.706;151.094;2023-05-07T09:34:53;1;1;
37290;PMS5003;23175;-33.706;151.094;2023-05-07T09:37:23;1;1;
37290;PMS5003;23175;-33.706;151.094;2023-05-07T09:39:55;2;2;
37290;PMS5003;23175;-33.706;151.094;2023-05-07T09:42:25;2;2;
37290;PMS5003;23175;-33.706;151.094;2023-05-07T09:44:55;1;1;
37290;PMS5003;23175;-33.706;151.094;2023-05-07T09:47:26;2;2;
37290;PMS5003;23175;-33.706;151.094;2023-05-07T09:49:59;1;1;
37290;PMS5003;23175;-33.706;151.094;2023-05-07T09:52:36;2;2;
37290;PMS5003;23175;-33.706;151.094;2023-05-07T09:55:07;1;1;
37290;PMS5003;23175;-33.706;151.094;2023-05-07T09:57:38;2;1;
37290;PMS5003;23175;-33.706;151.094;2023-05-07T10:00:10;1;1;
37290;PMS5003;23175;-33.706;151.094;2023-05-07T10:02:42;1;1;
37290;PMS5003;23175;-33.706;151.094;2023-05-07T10:05:18;4;4;
37290;PMS5003;23175;-33.706;151.094;2023-05-07T10:07:49;4;3;
37290;PMS5003;23175;-33.706;151.094;2023-05-07T10:10:20;3;3;
37290;PMS5003;23175;-33.706;151.094;2023-05-07T10:12:51;1;1;
37290;PMS5003;23175;-33.706;151.094;2023-05-07T10:15:22;2;2;
37290;PMS5003;23175;-33.706;151.094;2023-05-07T10:17:53;2;2;
37290;PMS5003;23175;-33.706;151.094;2023-05-07T10:20:25;0;0;
37290;PMS5003;23175;-33.706;151.094;2023-05-07T10:23:01;1;1;
37290;PMS5003;23175;-33.706;151.094;2023-05-07T10:25:35;3;0;
37290;PMS5003;23175;-33.706;151.094;2023-05-07T10:28:06;1;1;
37290;PMS5003;23175;-33.706;151.094;2023-05-07T10:30:44;0;0;
37290;PMS5003;23175;-33.706;151.094;2023-05-07T10:33:25;0;0;
37290;PMS5003;23175;-33.706;151.094;2023-05-07T10:35:58;2;1;
37290;PMS5003;23175;-33.706;151.094;2023-05-07T10:38:29;1;1;
37290;PMS5003;23175;-33.706;151.094;2023-05-07T10:40:59;1;1;
37290;PMS5003;23175;-33.706;151.094;2023-05-07T10:43:38;1;1;
37290;PMS5003;23175;-33.706;151.094;2023-05-07T10:46:10;0;0;
37290;PMS5003;23175;-33.706;151.094;2023-05-07T10:49:15;1;1;
37290;PMS5003;23175;-33.706;151.094;2023-05-07T10:52:07;1;1;
37290;PMS5003;23175;-33.706;151.094;2023-05-07T10:54:46;3;3;
37290;PMS5003;23175;-33.706;151.094;2023-05-07T10:57:50;0;0;
37290;PMS5003;23175;-33.706;151.094;2023-05-07T11:03:37;0;0;
37290;PMS5003;23175;-33.706;151.094;2023-05-07T11:06:43;0;0;
37290;PMS5003;23175;-33.706;151.094;2023-05-07T11:09:56;1;1;
37290;PMS5003;23175;-33.706;151.094;2023-05-07T11:12:59;1;1;
37290;PMS5003;23175;-33.706;151.094;2023-05-07T11:15:46;28;27;
37290;PMS5003;23175;-33.706;151.094;2023-05-07T11:18:18;10;10;
37290;PMS5003;23175;-33.706;151.094;2023-05-07T11:20:49;2;2;
37290;PMS5003;23175;-33.706;151.094;2023-05-07T11:23:56;1;1;
37290;PMS5003;23175;-33.706;151.094;2023-05-07T11:26:28;0;0;
37290;PMS5003;23175;-33.706;151.094;2023-05-07T11:29:10;0;0;
37290;PMS5003;23175;-33.706;151.094;2023-05-07T11:31:42;0;0;
37290;PMS5003;23175;-33.706;151.094;2023-05-07T11:34:15;0;0;
37290;PMS5003;23175;-33.706;151.094;2023-05-07T11:36:51;0;0;
37290;PMS5003;23175;-33.706;151.094;2023-05-07T11:39:25;0;0;
37290;PMS5003;23175;-33.706;151.094;2023-05-07T11:41:57;0;0;
37290;PMS5003;23175;-33.706;151.094;2023-05-07T11:44:40;0;0;
37290;PMS5003;23175;-33.706;151.094;2023-05-07T11:47:11;0;0;
37290;PMS5003;23175;-33.706;151.094;2023-05-07T11:49:47;0;0;
37290;PMS5003;23175;-33.706;151.094;2023-05-07T11:52:19;0;0;
37290;PMS5003;23175;-33.706;151.094;2023-05-07T11:54:51;0;0;
37290;PMS5003;23175;-33.706;151.094;2023-05-07T11:57:22;0;0;
37290;PMS5003;23175;-33.706;151.094;2023-05-07T11:59:53;0;0;
37290;PMS5003;23175;-33.706;151.094;2023-05-07T12:02:24;0;0;
37290;PMS5003;23175;-33.706;151.094;2023-05-07T12:04:54;1;1;
37290;PMS5003;23175;-33.706;151.094;2023-05-07T12:07:24;0;0;
37290;PMS5003;23175;-33.706;151.094;2023-05-07T12:09:54;0;0;
37290;PMS5003;23175;-33.706;151.094;2023-05-07T12:12:24;0;0;
37290;PMS5003;23175;-33.706;151.094;2023-05-07T12:14:54;1;1;
37290;PMS5003;23175;-33.706;151.094;2023-05-07T12:17:25;0;0;
37290;PMS5003;23175;-33.706;151.094;2023-05-07T12:19:55;0;0;
37290;PMS5003;23175;-33.706;151.094;2023-05-07T12:22:25;0;0;
37290;PMS5003;23175;-33.706;151.094;2023-05-07T12:24:57;0;0;
37290;PMS5003;23175;-33.706;151.094;2023-05-07T12:27:27;0;0;
37290;PMS5003;23175;-33.706;151.094;2023-05-07T12:29:58;0;0;
37290;PMS5003;23175;-33.706;151.094;2023-05-07T12:32:28;0;0;
37290;PMS5003;23175;-33.706;151.094;2023-05-07T12:34:58;1;1;
37290;PMS5003;23175;-33.706;151.094;2023-05-07T12:37:28;0;0;
37290;PMS5003;23175;-33.706;151.094;2023-05-07T12:40:06;1;1;
37290;PMS5003;23175;-33.706;151.094;2023-05-07T12:42:39;1;1;
37290;PMS5003;23175;-33.706;151.094;2023-05-07T12:45:10;1;1;
37290;PMS5003;23175;-33.706;151.094;2023-05-07T12:47:44;0;0;
37290;PMS5003;23175;-33.706;151.094;2023-05-07T12:50:14;0;0;
37290;PMS5003;23175;-33.706;151.094;2023-05-07T12:52:45;5;1;
37290;PMS5003;23175;-33.706;151.094;2023-05-07T12:55:16;1;1;
37290;PMS5003;23175;-33.706;151.094;2023-05-07T12:57:49;2;1;
37290;PMS5003;23175;-33.706;151.094;2023-05-07T13:00:32;0;0;
37290;PMS5003;23175;-33.706;151.094;2023-05-07T13:03:08;0;0;
37290;PMS5003;23175;-33.706;151.094;2023-05-07T13:05:39;1;1;
37290;PMS5003;23175;-33.706;151.094;2023-05-07T13:08:10;0;0;
37290;PMS5003;23175;-33.706;151.094;2023-05-07T13:10:40;0;0;
37290;PMS5003;23175;-33.706;151.094;2023-05-07T13:13:11;0;0;
37290;PMS5003;23175;-33.706;151.094;2023-05-07T13:15:41;0;0;
37290;PMS5003;23175;-33.706;151.094;2023-05-07T13:18:11;1;1;
37290;PMS5003;23175;-33.706;151.094;2023-05-07T13:20:41;1;1;
37290;PMS5003;23175;-33.706;151.094;2023-05-07T13:23:12;0;0;
37290;PMS5003;23175;-33.706;151.094;2023-05-07T13:25:47;0;0;
37290;PMS5003;23175;-33.706;151.094;2023-05-07T13:28:17;0;0;
37290;PMS5003;23175;-33.706;151.094;2023-05-07T13:30:48;0;0;
37290;PMS5003;23175;-33.706;151.094;2023-05-07T13:33:18;0;0;
37290;PMS5003;23175;-33.706;151.094;2023-05-07T13:35:48;0;0;
37290;PMS5003;23175;-33.706;151.094;2023-05-07T13:38:18;0;0;
37290;PMS5003;23175;-33.706;151.094;2023-05-07T13:40:48;0;0;
37290;PMS5003;23175;-33.706;151.094;2023-05-07T13:43:18;0;0;
37290;PMS5003;23175;-33.706;151.094;2023-05-07T13:45:48;0;0;
37290;PMS5003;23175;-33.706;151.094;2023-05-07T13:48:19;0;0;
37290;PMS5003;23175;-33.706;151.094;2023-05-07T13:50:49;0;0;
37290;PMS5003;23175;-33.706;151.094;2023-05-07T13:53:19;0;0;
37290;PMS5003;23175;-33.706;151.094;2023-05-07T13:55:49;0;0;
37290;PMS5003;23175;-33.706;151.094;2023-05-07T13:58:19;0;0;
37290;PMS5003;23175;-33.706;151.094;2023-05-07T14:00:49;1;1;
37290;PMS5003;23175;-33.706;151.094;2023-05-07T14:03:19;0;0;
37290;PMS5003;23175;-33.706;151.094;2023-05-07T14:05:50;0;0;
37290;PMS5003;23175;-33.706;151.094;2023-05-07T14:08:21;0;0;
37290;PMS5003;23175;-33.706;151.094;2023-05-07T14:10:51;0;0;
37290;PMS5003;23175;-33.706;151.094;2023-05-07T14:13:21;0;0;
37290;PMS5003;23175;-33.706;151.094;2023-05-07T14:15:51;0;0;
37290;PMS5003;23175;-33.706;151.094;2023-05-07T14:18:21;0;0;
37290;PMS5003;23175;-33.706;151.094;2023-05-07T14:20:51;1;0;
37290;PMS5003;23175;-33.706;151.094;2023-05-07T14:23:26;0;0;
37290;PMS5003;23175;-33.706;151.094;2023-05-07T14:25:57;0;0;
37290;PMS5003;23175;-33.706;151.094;2023-05-07T14:28:27;1;0;
37290;PMS5003;23175;-33.706;151.094;2023-05-07T14:30:57;0;0;
37290;PMS5003;23175;-33.706;151.094;2023-05-07T14:33:27;0;0;
37290;PMS5003;23175;-33.706;151.094;2023-05-07T14:35:57;1;1;
37290;PMS5003;23175;-33.706;151.094;2023-05-07T14:38:27;0;0;
37290;PMS5003;23175;-33.706;151.094;2023-05-07T14:40:58;1;0;
37290;PMS5003;23175;-33.706;151.094;2023-05-07T14:43:28;0;0;
37290;PMS5003;23175;-33.706;151.094;2023-05-07T14:45:58;0;0;
37290;PMS5003;23175;-33.706;151.094;2023-05-07T14:48:29;0;0;
37290;PMS5003;23175;-33.706;151.094;2023-05-07T14:50:59;0;0;
37290;PMS5003;23175;-33.706;151.094;2023-05-07T14:53:29;0;0;
37290;PMS5003;23175;-33.706;151.094;2023-05-07T14:55:59;0;0;
37290;PMS5003;23175;-33.706;151.094;2023-05-07T14:58:29;0;0;
37290;PMS5003;23175;-33.706;151.094;2023-05-07T15:00:59;0;0;
37290;PMS5003;23175;-33.706;151.094;2023-05-07T15:03:31;0;0;
37290;PMS5003;23175;-33.706;151.094;2023-05-07T15:06:02;0;0;
37290;PMS5003;23175;-33.706;151.094;2023-05-07T15:08:32;0;0;
37290;PMS5003;23175;-33.706;151.094;2023-05-07T15:11:02;0;0;
37290;PMS5003;23175;-33.706;151.094;2023-05-07T15:13:32;1;0;
37290;PMS5003;23175;-33.706;151.094;2023-05-07T15:16:02;0;0;
37290;PMS5003;23175;-33.706;151.094;2023-05-07T15:18:32;1;0;
37290;PMS5003;23175;-33.706;151.094;2023-05-07T15:21:02;0;0;
37290;PMS5003;23175;-33.706;151.094;2023-05-07T15:23:32;0;0;
37290;PMS5003;23175;-33.706;151.094;2023-05-07T15:26:03;1;1;
37290;PMS5003;23175;-33.706;151.094;2023-05-07T15:28:33;0;0;
37290;PMS5003;23175;-33.706;151.094;2023-05-07T15:31:04;0;0;
37290;PMS5003;23175;-33.706;151.094;2023-05-07T15:33:34;1;1;
37290;PMS5003;23175;-33.706;151.094;2023-05-07T15:36:05;0;0;
37290;PMS5003;23175;-33.706;151.094;2023-05-07T15:38:35;0;0;
37290;PMS5003;23175;-33.706;151.094;2023-05-07T15:41:06;0;0;
37290;PMS5003;23175;-33.706;151.094;2023-05-07T15:43:38;0;0;
37290;PMS5003;23175;-33.706;151.094;2023-05-07T15:46:17;0;0;
37290;PMS5003;23175;-33.706;151.094;2023-05-07T15:48:49;0;0;
37290;PMS5003;23175;-33.706;151.094;2023-05-07T15:51:19;0;0;
37290;PMS5003;23175;-33.706;151.094;2023-05-07T15:53:50;0;0;
37290;PMS5003;23175;-33.706;151.094;2023-05-07T15:56:20;1;1;
37290;PMS5003;23175;-33.706;151.094;2023-05-07T15:58:49;1;1;
37290;PMS5003;23175;-33.706;151.094;2023-05-07T16:01:19;0;0;
37290;PMS5003;23175;-33.706;151.094;2023-05-07T16:03:49;0;0;
37290;PMS5003;23175;-33.706;151.094;2023-05-07T16:06:20;0;0;
37290;PMS5003;23175;-33.706;151.094;2023-05-07T16:08:50;0;0;
37290;PMS5003;23175;-33.706;151.094;2023-05-07T16:11:20;1;1;
37290;PMS5003;23175;-33.706;151.094;2023-05-07T16:13:50;0;0;
37290;PMS5003;23175;-33.706;151.094;2023-05-07T16:16:20;0;0;
37290;PMS5003;23175;-33.706;151.094;2023-05-07T16:18:50;1;0;
37290;PMS5003;23175;-33.706;151.094;2023-05-07T16:21:19;0;0;
37290;PMS5003;23175;-33.706;151.094;2023-05-07T16:23:50;0;0;
37290;PMS5003;23175;-33.706;151.094;2023-05-07T16:26:19;0;0;
37290;PMS5003;23175;-33.706;151.094;2023-05-07T16:28:49;0;0;
37290;PMS5003;23175;-33.706;151.094;2023-05-07T16:31:20;0;0;